createdAt,value
2022-12-27T00:00:44.829Z,5.26
2022-12-27T00:03:13.734Z,5.31
2022-12-27T00:05:43.823Z,5.25
2022-12-27T00:08:11.717Z,5.26
2022-12-27T00:10:41.515Z,5.17
2022-12-27T00:13:09.432Z,5.19
2022-12-27T00:15:37.727Z,5.20
2022-12-27T00:18:05.837Z,5.09
2022-12-27T00:20:33.624Z,5.03
2022-12-27T00:23:02.102Z,5.00
2022-12-27T00:25:29.941Z,4.96
2022-12-27T00:27:59.154Z,4.93
2022-12-27T00:30:26.998Z,4.78
2022-12-27T00:32:54.980Z,4.79
2022-12-27T00:35:24.064Z,4.66
2022-12-27T00:37:51.917Z,4.75
2022-12-27T00:40:19.681Z,4.68
2022-12-27T00:42:47.479Z,4.61
2022-12-27T00:45:16.920Z,4.59
2022-12-27T00:47:44.715Z,4.51
2022-12-27T00:50:12.632Z,4.52
2022-12-27T00:52:40.436Z,4.46
2022-12-27T00:55:09.197Z,4.40
2022-12-27T00:57:36.995Z,4.41
2022-12-27T01:00:10.183Z,4.29
2022-12-27T01:02:39.834Z,4.29
2022-12-27T01:05:08.358Z,4.26
2022-12-27T01:07:36.224Z,4.22
2022-12-27T01:10:04.643Z,4.18
2022-12-27T01:12:32.500Z,4.16
2022-12-27T01:15:00.359Z,4.11
2022-12-27T01:17:30.274Z,4.11
2022-12-27T01:19:59.544Z,4.06
2022-12-27T01:22:27.456Z,4.03
2022-12-27T01:24:55.306Z,4.01
2022-12-27T01:27:23.265Z,3.85
2022-12-27T01:29:51.049Z,3.85
2022-12-27T01:32:18.984Z,3.81
2022-12-27T01:34:46.797Z,3.81
2022-12-27T01:37:15.951Z,3.77
2022-12-27T01:39:43.818Z,3.78
2022-12-27T01:42:34.628Z,3.74
2022-12-27T01:45:04.001Z,3.72
2022-12-27T01:47:44.183Z,3.65
2022-12-27T01:50:19.392Z,3.58
2022-12-27T01:52:52.845Z,3.56
2022-12-27T01:55:28.556Z,3.50
2022-12-27T01:58:00.789Z,3.46
2022-12-27T02:00:28.817Z,3.53
2022-12-27T02:02:57.384Z,3.53
2022-12-27T02:05:26.600Z,3.54
2022-12-27T02:08:10.315Z,3.50
2022-12-27T02:10:39.571Z,3.51
2022-12-27T02:13:07.627Z,3.52
2022-12-27T02:15:35.872Z,3.55
2022-12-27T02:18:03.959Z,3.51
2022-12-27T02:20:44.117Z,3.47
2022-12-27T02:23:53.479Z,3.47
2022-12-27T02:26:38.076Z,3.47
2022-12-27T02:29:19.208Z,3.46
2022-12-27T02:31:53.117Z,3.46
2022-12-27T02:34:26.000Z,3.41
2022-12-27T02:36:59.768Z,3.38
2022-12-27T02:39:29.972Z,3.39
2022-12-27T02:42:16.326Z,3.34
2022-12-27T02:45:03.669Z,3.37
2022-12-27T02:47:49.883Z,3.35
2022-12-27T02:50:36.060Z,3.29
2022-12-27T02:53:11.374Z,3.18
2022-12-27T02:56:13.364Z,3.16
2022-12-27T03:02:15.256Z,2.96
2022-12-27T03:05:03.275Z,2.94
2022-12-27T03:07:41.520Z,2.90
2022-12-27T03:10:35.020Z,2.88
2022-12-27T03:13:39.768Z,2.81
2022-12-27T03:16:17.217Z,2.79
2022-12-27T03:19:00.172Z,2.79
2022-12-27T03:21:49.127Z,2.83
2022-12-27T03:24:37.321Z,2.83
2022-12-27T03:27:10.703Z,2.79
2022-12-27T03:29:56.907Z,2.75
2022-12-27T03:32:39.870Z,2.69
2022-12-27T03:35:16.566Z,2.70
2022-12-27T03:38:05.283Z,2.74
2022-12-27T03:40:40.321Z,2.73
2022-12-27T03:43:12.818Z,2.75
2022-12-27T03:46:16.796Z,2.72
2022-12-27T03:49:06.804Z,2.68
2022-12-27T03:51:41.504Z,2.66
2022-12-27T03:54:16.643Z,2.53
2022-12-27T03:56:44.562Z,2.51
2022-12-27T03:59:13.644Z,2.43
2022-12-27T04:01:43.061Z,2.42
2022-12-27T04:04:11.039Z,2.33
2022-12-27T04:06:40.757Z,2.31
2022-12-27T04:09:28.076Z,2.22
2022-12-27T04:12:13.760Z,2.24
2022-12-27T04:14:59.276Z,2.17
2022-12-27T04:17:45.263Z,2.17
2022-12-27T04:20:30.639Z,2.14
2022-12-27T04:23:17.701Z,2.08
2022-12-27T04:26:03.650Z,2.05
2022-12-27T04:28:48.931Z,2.00
2022-12-27T04:31:34.907Z,1.94
2022-12-27T04:34:20.149Z,1.92
2022-12-27T04:36:48.537Z,1.96
2022-12-27T04:39:17.837Z,1.96
2022-12-27T04:42:03.261Z,1.97
2022-12-27T04:44:59.973Z,2.00
2022-12-27T04:47:45.719Z,1.95
2022-12-27T04:50:40.623Z,1.99
2022-12-27T04:53:29.060Z,1.95
2022-12-27T04:55:58.446Z,1.99
2022-12-27T04:58:26.788Z,1.96
2022-12-27T05:01:19.062Z,1.97
2022-12-27T05:03:49.565Z,1.94
2022-12-27T05:06:18.477Z,1.86
2022-12-27T05:09:09.352Z,1.92
2022-12-27T05:11:56.184Z,1.92
2022-12-27T05:14:24.024Z,1.90
2022-12-27T05:16:51.874Z,1.90
2022-12-27T05:19:19.719Z,1.93
2022-12-27T05:22:01.487Z,1.94
2022-12-27T05:24:48.123Z,1.90
2022-12-27T05:27:17.348Z,1.84
2022-12-27T05:29:45.288Z,1.79
2022-12-27T05:32:13.913Z,1.78
2022-12-27T05:34:42.062Z,1.79
2022-12-27T05:37:10.077Z,1.73
2022-12-27T05:39:37.985Z,1.72
2022-12-27T05:42:06.415Z,1.71
2022-12-27T05:44:35.637Z,1.71
2022-12-27T05:47:03.528Z,1.64
2022-12-27T05:49:31.403Z,1.59
2022-12-27T05:51:59.240Z,1.60
2022-12-27T05:54:27.104Z,1.61
2022-12-27T05:56:55.311Z,1.56
2022-12-27T05:59:23.168Z,1.49
2022-12-27T06:01:52.676Z,1.47
2022-12-27T06:04:20.663Z,1.47
2022-12-27T06:06:48.550Z,1.42
2022-12-27T06:09:16.552Z,1.41
2022-12-27T06:11:44.456Z,1.45
2022-12-27T06:14:12.569Z,1.45
2022-12-27T06:16:40.515Z,1.49
2022-12-27T06:19:09.814Z,1.39
2022-12-27T06:21:37.656Z,1.35
2022-12-27T06:24:06.189Z,1.25
2022-12-27T06:26:34.481Z,1.22
2022-12-27T06:29:02.308Z,1.18
2022-12-27T06:31:30.379Z,1.15
2022-12-27T06:33:58.522Z,1.16
2022-12-27T06:36:29.636Z,1.14
2022-12-27T06:38:57.591Z,1.15
2022-12-27T06:41:25.861Z,1.09
2022-12-27T06:43:56.951Z,1.10
2022-12-27T06:46:25.638Z,1.07
2022-12-27T06:48:53.899Z,1.05
2022-12-27T06:51:22.604Z,1.06
2022-12-27T06:53:51.838Z,1.03
2022-12-27T06:56:21.865Z,1.01
2022-12-27T06:58:51.106Z,1.08
2022-12-27T07:01:21.800Z,1.03
2022-12-27T07:03:51.384Z,1.02
2022-12-27T07:06:20.111Z,1.12
2022-12-27T07:08:48.399Z,1.09
2022-12-27T07:11:19.093Z,1.12
2022-12-27T07:13:48.647Z,1.12
2022-12-27T07:16:19.121Z,1.10
2022-12-27T07:18:49.844Z,1.01
2022-12-27T07:21:20.292Z,1.03
2022-12-27T07:23:48.867Z,0.99
2022-12-27T07:26:19.661Z,0.97
2022-12-27T07:28:48.264Z,0.96
2022-12-27T07:31:18.203Z,0.95
2022-12-27T07:33:46.744Z,0.92
2022-12-27T07:36:17.469Z,0.92
2022-12-27T07:38:45.989Z,0.94
2022-12-27T07:41:14.563Z,0.94
2022-12-27T07:43:44.718Z,0.96
2022-12-27T07:46:14.793Z,0.95
2022-12-27T07:48:43.230Z,0.97
2022-12-27T07:51:11.708Z,0.97
2022-12-27T07:53:40.112Z,1.01
2022-12-27T07:56:09.183Z,0.99
2022-12-27T07:58:38.603Z,1.01
2022-12-27T08:01:09.195Z,1.01
2022-12-27T08:03:37.617Z,1.07
2022-12-27T08:06:06.462Z,1.12
2022-12-27T08:08:39.627Z,1.19
2022-12-27T08:11:08.214Z,1.23
2022-12-27T08:13:36.588Z,1.27
2022-12-27T08:16:05.481Z,1.31
2022-12-27T08:18:35.289Z,1.37
2022-12-27T08:21:03.195Z,1.38
2022-12-27T08:23:30.984Z,1.42
2022-12-27T08:25:58.817Z,1.44
2022-12-27T08:28:28.181Z,1.46
2022-12-27T08:30:56.165Z,1.57
2022-12-27T08:33:24.949Z,1.66
2022-12-27T08:35:55.000Z,1.75
2022-12-27T08:38:23.537Z,1.80
2022-12-27T08:40:52.450Z,1.84
2022-12-27T08:43:21.322Z,1.90
2022-12-27T08:45:49.137Z,1.94
2022-12-27T08:48:17.179Z,1.97
2022-12-27T08:50:45.188Z,2.07
2022-12-27T08:53:14.535Z,2.09
2022-12-27T08:55:42.371Z,2.13
2022-12-27T08:58:15.988Z,2.17
2022-12-27T09:00:44.740Z,2.19
2022-12-27T09:03:12.805Z,2.23
2022-12-27T09:05:42.072Z,2.27
2022-12-27T09:08:10.920Z,2.33
2022-12-27T09:10:40.137Z,2.33
2022-12-27T09:13:08.120Z,2.37
2022-12-27T09:15:36.106Z,2.45
2022-12-27T09:18:04.119Z,2.43
2022-12-27T09:20:32.013Z,2.44
2022-12-27T09:23:00.367Z,2.44
2022-12-27T09:25:28.291Z,2.51
2022-12-27T09:27:57.479Z,2.60
2022-12-27T09:30:25.476Z,2.60
2022-12-27T09:32:53.349Z,2.62
2022-12-27T09:35:21.150Z,2.62
2022-12-27T09:37:48.986Z,2.65
2022-12-27T09:40:19.714Z,2.67
2022-12-27T09:43:12.599Z,2.74
2022-12-27T09:45:50.073Z,2.74
2022-12-27T09:48:31.021Z,2.77
2022-12-27T09:51:05.280Z,2.83
2022-12-27T09:53:42.792Z,2.88
2022-12-27T09:56:14.033Z,2.92
2022-12-27T09:58:48.429Z,2.95
2022-12-27T10:01:22.577Z,2.95
2022-12-27T10:03:51.278Z,3.00
2022-12-27T10:06:42.893Z,3.06
2022-12-27T10:09:30.664Z,3.09
2022-12-27T10:12:05.691Z,3.14
2022-12-27T10:14:49.716Z,3.15
2022-12-27T10:17:35.996Z,3.18
2022-12-27T10:20:19.179Z,3.20
2022-12-27T10:22:50.518Z,3.25
2022-12-27T10:25:23.216Z,3.30
2022-12-27T10:27:52.334Z,3.34
2022-12-27T10:30:21.989Z,3.37
2022-12-27T10:32:51.556Z,3.41
2022-12-27T10:35:21.075Z,3.47
2022-12-27T10:37:50.033Z,3.45
2022-12-27T10:40:23.633Z,3.50
2022-12-27T10:43:03.755Z,3.54
2022-12-27T10:45:34.744Z,3.60
2022-12-27T10:48:17.826Z,3.64
2022-12-27T10:50:49.883Z,3.66
2022-12-27T10:53:31.021Z,3.71
2022-12-27T10:56:08.805Z,3.74
2022-12-27T10:58:41.019Z,3.78
2022-12-27T11:01:17.535Z,3.81
2022-12-27T11:03:47.143Z,3.85
2022-12-27T11:06:24.602Z,3.91
2022-12-27T11:08:54.407Z,3.95
2022-12-27T11:11:24.481Z,3.99
2022-12-27T11:13:53.078Z,4.02
2022-12-27T11:16:29.060Z,4.02
2022-12-27T11:19:00.171Z,4.06
2022-12-27T11:21:30.468Z,4.08
2022-12-27T11:24:01.937Z,4.12
2022-12-27T11:26:40.566Z,4.17
2022-12-27T11:29:19.397Z,4.23
2022-12-27T11:31:49.350Z,4.29
2022-12-27T11:34:22.303Z,4.34
2022-12-27T11:36:52.489Z,4.42
2022-12-27T11:39:44.011Z,4.50
2022-12-27T11:42:19.255Z,4.54
2022-12-27T11:44:56.405Z,4.62
2022-12-27T11:47:33.076Z,4.66
2022-12-27T11:50:23.124Z,4.72
2022-12-27T11:53:22.238Z,4.77
2022-12-27T11:56:14.476Z,4.82
2022-12-27T11:59:03.223Z,4.84
2022-12-27T12:01:46.247Z,4.88
2022-12-27T12:04:54.680Z,4.85
2022-12-27T12:07:43.233Z,4.83
2022-12-27T12:10:23.166Z,4.87
2022-12-27T12:13:10.936Z,4.91
2022-12-27T12:15:57.589Z,4.94
2022-12-27T12:18:40.409Z,4.95
2022-12-27T12:21:31.820Z,4.99
2022-12-27T12:24:38.743Z,5.02
2022-12-27T12:27:25.630Z,5.07
2022-12-27T12:30:27.048Z,5.16
2022-12-27T12:33:37.477Z,5.21
2022-12-27T12:36:26.728Z,5.24
2022-12-27T12:39:02.734Z,5.26
2022-12-27T12:41:55.407Z,5.30
2022-12-27T12:44:45.524Z,5.28
2022-12-27T12:47:27.978Z,5.33
2022-12-27T12:50:13.174Z,5.33
2022-12-27T12:53:01.808Z,5.38
2022-12-27T12:55:40.831Z,5.43
2022-12-27T12:58:25.628Z,5.46
2022-12-27T13:01:08.674Z,5.49
2022-12-27T13:03:59.328Z,5.49
2022-12-27T13:06:49.088Z,5.55
2022-12-27T13:09:31.185Z,5.56
2022-12-27T13:12:06.040Z,5.56
2022-12-27T13:14:56.164Z,5.57
2022-12-27T13:17:32.958Z,5.58
2022-12-27T13:20:23.212Z,5.59
2022-12-27T13:23:04.264Z,5.62
2022-12-27T13:25:42.298Z,5.61
2022-12-27T13:28:29.825Z,5.65
2022-12-27T13:31:07.131Z,5.63
2022-12-27T13:33:48.500Z,5.58
2022-12-27T13:36:28.037Z,5.58
2022-12-27T13:39:15.225Z,5.57
2022-12-27T13:41:59.332Z,5.54
2022-12-27T13:44:44.282Z,5.56
2022-12-27T13:47:42.963Z,5.49
2022-12-27T13:50:56.571Z,5.46
2022-12-27T13:54:05.990Z,5.48
2022-12-27T13:56:57.226Z,5.49
2022-12-27T13:59:44.835Z,5.50
2022-12-27T14:02:45.554Z,5.49
2022-12-27T14:06:00.918Z,5.45
2022-12-27T14:08:49.904Z,5.43
2022-12-27T14:11:34.211Z,5.37
2022-12-27T14:14:05.148Z,5.35
2022-12-27T14:16:43.439Z,5.32
2022-12-27T14:19:50.666Z,5.26
2022-12-27T14:22:35.192Z,5.26
2022-12-27T14:25:44.548Z,5.24
2022-12-27T14:29:03.243Z,5.18
2022-12-27T14:32:22.397Z,5.13
2022-12-27T14:35:30.099Z,5.08
2022-12-27T14:38:36.964Z,5.06
2022-12-27T14:41:37.419Z,5.02
2022-12-27T14:44:50.121Z,4.98
2022-12-27T14:47:55.824Z,4.90
2022-12-27T14:51:03.612Z,4.87
2022-12-27T14:54:16.212Z,4.80
2022-12-27T14:56:57.137Z,4.78
2022-12-27T14:59:37.832Z,4.79
2022-12-27T15:02:30.868Z,4.76
2022-12-27T15:05:21.391Z,4.74
2022-12-27T15:08:29.613Z,4.72
2022-12-27T15:11:09.227Z,4.64
2022-12-27T15:13:52.688Z,4.64
2022-12-27T15:16:35.214Z,4.64
2022-12-27T15:19:17.541Z,4.61
2022-12-27T15:21:55.353Z,4.61
2022-12-27T15:24:41.416Z,4.54
2022-12-27T15:27:20.311Z,4.53
2022-12-27T15:30:03.674Z,4.48
2022-12-27T15:32:48.259Z,4.42
2022-12-27T15:35:33.601Z,4.33
2022-12-27T15:38:09.304Z,4.29
2022-12-27T15:40:48.039Z,4.24
2022-12-27T15:43:55.919Z,4.24
2022-12-27T15:46:50.318Z,4.14
2022-12-27T15:49:51.895Z,4.13
2022-12-27T15:52:27.944Z,4.03
2022-12-27T15:55:18.560Z,3.95
2022-12-27T15:58:08.504Z,3.89
2022-12-27T16:00:37.203Z,3.85
2022-12-27T16:03:35.984Z,3.81
2022-12-27T16:06:05.133Z,3.74
2022-12-27T16:08:38.991Z,3.67
2022-12-27T16:11:12.113Z,3.64
2022-12-27T16:13:46.837Z,3.58
2022-12-27T16:16:57.429Z,3.47
2022-12-27T16:20:02.926Z,3.47
2022-12-27T16:22:37.969Z,3.44
2022-12-27T16:25:31.029Z,3.43
2022-12-27T16:28:07.706Z,3.36
2022-12-27T16:30:47.815Z,3.34
2022-12-27T16:33:33.985Z,3.36
2022-12-27T16:36:18.587Z,3.32
2022-12-27T16:38:49.556Z,3.32
2022-12-27T16:41:30.376Z,3.32
2022-12-27T16:44:13.620Z,3.25
2022-12-27T16:47:08.291Z,3.23
2022-12-27T16:49:56.587Z,3.16
2022-12-27T16:52:48.819Z,3.13
2022-12-27T16:55:37.408Z,3.06
2022-12-27T16:58:24.513Z,3.11
2022-12-27T17:00:54.006Z,3.08
2022-12-27T17:03:32.265Z,3.09
2022-12-27T17:09:33.802Z,3.07
2022-12-27T17:12:19.491Z,2.99
2022-12-27T17:14:47.917Z,2.99
2022-12-27T17:17:20.789Z,2.99
2022-12-27T17:19:55.170Z,2.91
2022-12-27T17:22:28.834Z,2.91
2022-12-27T17:25:03.962Z,2.88
2022-12-27T17:27:45.017Z,2.83
2022-12-27T17:30:22.942Z,2.74
2022-12-27T17:33:17.933Z,2.69
2022-12-27T17:36:00.274Z,2.59
2022-12-27T17:38:39.517Z,2.56
2022-12-27T17:41:18.888Z,2.53
2022-12-27T17:44:16.136Z,2.48
2022-12-27T17:46:55.587Z,2.39
2022-12-27T17:49:28.057Z,2.33
2022-12-27T17:52:14.877Z,2.30
2022-12-27T17:55:00.311Z,2.21
2022-12-27T17:57:46.894Z,2.10
2022-12-27T18:00:23.829Z,2.06
2022-12-27T18:02:53.144Z,2.06
2022-12-27T18:05:27.379Z,2.10
2022-12-27T18:08:02.966Z,2.06
2022-12-27T18:10:31.739Z,2.04
2022-12-27T18:13:03.781Z,1.99
2022-12-27T18:15:34.686Z,1.92
2022-12-27T18:18:05.185Z,1.82
2022-12-27T18:20:36.451Z,1.80
2022-12-27T18:23:19.179Z,1.88
2022-12-27T18:25:53.246Z,1.82
2022-12-27T18:28:30.485Z,1.82
2022-12-27T18:31:05.772Z,1.70
2022-12-27T18:33:35.807Z,1.66
2022-12-27T18:36:06.901Z,1.64
2022-12-27T18:38:38.794Z,1.67
2022-12-27T18:41:09.679Z,1.71
2022-12-27T18:43:44.698Z,1.73
2022-12-27T18:46:17.497Z,1.64
2022-12-27T18:48:46.212Z,1.61
2022-12-27T18:51:14.371Z,1.56
2022-12-27T18:53:43.898Z,1.57
2022-12-27T18:56:29.100Z,1.63
2022-12-27T18:59:03.681Z,1.59
2022-12-27T19:01:39.553Z,1.56
2022-12-27T19:04:23.466Z,1.54
2022-12-27T19:06:56.100Z,1.49
2022-12-27T19:09:27.255Z,1.56
2022-12-27T19:11:57.403Z,1.57
2022-12-27T19:14:30.434Z,1.51
2022-12-27T19:17:06.981Z,1.37
2022-12-27T19:19:38.614Z,1.33
2022-12-27T19:22:34.526Z,1.25
2022-12-27T19:25:05.554Z,1.25
2022-12-27T19:27:33.484Z,1.19
2022-12-27T19:30:02.723Z,1.16
2022-12-27T19:32:35.354Z,1.13
2022-12-27T19:35:05.998Z,1.13
2022-12-27T19:37:35.626Z,1.14
2022-12-27T19:40:03.713Z,1.16
2022-12-27T19:42:34.913Z,1.02
2022-12-27T19:45:04.654Z,0.99
2022-12-27T19:47:34.808Z,0.95
2022-12-27T19:50:02.662Z,0.96
2022-12-27T19:52:30.749Z,0.93
2022-12-27T19:55:02.661Z,0.88
2022-12-27T19:57:30.485Z,0.88
2022-12-27T19:59:58.362Z,0.88
2022-12-27T20:02:27.756Z,0.84
2022-12-27T20:04:56.523Z,0.81
2022-12-27T20:07:26.414Z,0.74
2022-12-27T20:09:54.400Z,0.71
2022-12-27T20:12:22.185Z,0.70
2022-12-27T20:14:50.077Z,0.73
2022-12-27T20:17:17.947Z,0.69
2022-12-27T20:19:47.312Z,0.71
2022-12-27T20:22:15.229Z,0.60
2022-12-27T20:24:43.057Z,0.62
2022-12-27T20:27:10.885Z,0.58
2022-12-27T20:29:38.720Z,0.56
2022-12-27T20:32:06.948Z,0.57
2022-12-27T20:34:34.841Z,0.54
2022-12-27T20:37:04.498Z,0.54
2022-12-27T20:39:32.304Z,0.58
2022-12-27T20:42:00.437Z,0.61
2022-12-27T20:44:29.100Z,0.58
2022-12-27T20:46:56.885Z,0.61
2022-12-27T20:49:24.857Z,0.58
2022-12-27T20:51:52.978Z,0.61
2022-12-27T20:54:22.490Z,0.57
2022-12-27T20:56:50.355Z,0.64
2022-12-27T20:59:18.161Z,0.60
2022-12-27T21:01:46.143Z,0.53
2022-12-27T21:04:14.246Z,0.50
2022-12-27T21:06:42.090Z,0.53
2022-12-27T21:09:10.143Z,0.53
2022-12-27T21:11:39.705Z,0.57
2022-12-27T21:14:07.616Z,0.63
2022-12-27T21:16:36.472Z,0.63
2022-12-27T21:19:05.321Z,0.60
2022-12-27T21:21:35.487Z,0.51
2022-12-27T21:24:03.984Z,0.46
2022-12-27T21:26:33.864Z,0.49
2022-12-27T21:29:05.300Z,0.48
2022-12-27T21:31:33.449Z,0.48
2022-12-27T21:34:02.338Z,0.43
2022-12-27T21:36:34.015Z,0.39
2022-12-27T21:39:03.045Z,0.29
2022-12-27T21:41:33.103Z,0.35
2022-12-27T21:44:01.290Z,0.34
2022-12-27T21:46:32.416Z,0.29
2022-12-27T21:49:01.788Z,0.27
2022-12-27T21:51:30.734Z,0.25
2022-12-27T21:53:58.756Z,0.20
2022-12-27T21:56:27.625Z,0.20
2022-12-27T21:58:56.403Z,0.17
2022-12-27T22:01:25.686Z,0.17
2022-12-27T22:03:56.829Z,0.21
2022-12-27T22:06:27.193Z,0.18
2022-12-27T22:08:57.183Z,0.15
2022-12-27T22:11:25.800Z,0.17
2022-12-27T22:13:53.795Z,0.15
2022-12-27T22:16:23.968Z,0.15
2022-12-27T22:18:52.324Z,0.14
2022-12-27T22:21:24.619Z,0.16
2022-12-27T22:23:55.078Z,0.14
2022-12-27T22:26:24.999Z,0.14
2022-12-27T22:28:52.915Z,0.13
2022-12-27T22:31:22.835Z,0.17
2022-12-27T22:33:51.561Z,0.17
2022-12-27T22:36:22.785Z,0.25
2022-12-27T22:38:53.556Z,0.34
2022-12-27T22:41:25.850Z,0.34
2022-12-27T22:43:55.502Z,0.40
2022-12-27T22:46:23.534Z,0.40
2022-12-27T22:48:52.477Z,0.41
2022-12-27T22:51:24.365Z,0.36
2022-12-27T22:53:52.712Z,0.34
2022-12-27T22:56:22.485Z,0.30
2022-12-27T22:58:50.937Z,0.30
2022-12-27T23:01:21.069Z,0.25
2022-12-27T23:03:49.686Z,0.20
2022-12-27T23:06:18.783Z,0.21
2022-12-27T23:08:48.694Z,0.20
2022-12-27T23:11:18.597Z,0.15
2022-12-27T23:13:47.316Z,0.18
2022-12-27T23:16:15.952Z,0.18
2022-12-27T23:18:43.875Z,0.17
2022-12-27T23:21:21.800Z,0.19
2022-12-27T23:23:53.902Z,0.16
2022-12-27T23:26:24.023Z,0.18
2022-12-27T23:28:53.399Z,0.25
2022-12-27T23:31:22.845Z,0.23
2022-12-27T23:33:51.085Z,0.22
2022-12-27T23:36:20.511Z,0.24
2022-12-27T23:38:49.013Z,0.24
2022-12-27T23:41:21.043Z,0.25
2022-12-27T23:43:52.658Z,0.25
2022-12-27T23:46:23.729Z,0.25
2022-12-27T23:48:51.942Z,0.29
2022-12-27T23:51:20.619Z,0.24
2022-12-27T23:53:48.614Z,0.22
2022-12-27T23:56:19.941Z,0.19
2022-12-27T23:58:48.716Z,0.20
